Maersk Wolfsburg — VRGP3 — position and weather

sailwx.info

Track history (hours):
 
Tides and Currents Weather Stations Pressure Air Temp Water Temp Dewpoint Dewpoint Depression Visibility Wind Speed Wind Dir Waves Ship Positions

Maersk Wolfsburg

Last reported at 2018-Jan-12 14:56 UTC. Time now 2018-Jan-20 10:37 UTC.
Position N 31°55' W 080°36'.

Length 175 m; draft 7.4 m.

Type: Ship (hazmat cat A). MMSI: 477742500.

Date/timePositionNaut miles runAvg speedWind from/ knotsBaromVisibWave heightAir tempDewpointWater temp
2018-Jan-12 14:56N 31°55' W 080°36'0 0.0
2018-Jan-12 14:14N 31°55' W 080°36'0 0.0
2018-Jan-12 12:20N 31°55' W 080°36'0 0.0
2018-Jan-12 10:26N 31°55' W 080°36'0 0.0
2018-Jan-12 07:26N 31°55' W 080°36'0 0.0
2018-Jan-12 06:14N 31°55' W 080°36'0 0.0
2018-Jan-12 05:14N 31°55' W 080°36'0 0.0
2018-Jan-12 04:56N 31°55' W 080°36'0 0.0
2018-Jan-12 04:26N 31°55' W 080°36'0 0.1
2018-Jan-12 02:50N 31°55' W 080°35'2 6.3
2018-Jan-12 02:30N 31°55' W 080°33'6 9.0
2018-Jan-12 01:53N 31°55' W 080°26'4 9.5
2018-Jan-12 01:30N 31°56' W 080°22'5 9.5
2018-Jan-12 00:59N 31°58' W 080°17'178 9.6
2018-Jan-11 06:29N 34°11' W 077°57'312 8.5
2018-Jan-09 17:42N 38°52' W 075°05'211.1
2018-Jan-09 17:31N 38°54' W 075°05'713.1
2018-Jan-09 17:00N 38°60' W 075°08'713.4
2018-Jan-09 16:30N 39°06' W 075°12'714.2
2018-Jan-09 16:00N 39°12' W 075°17'815.2
2018-Jan-09 15:31N 39°18' W 075°23'714.5
2018-Jan-09 15:01N 39°23' W 075°29'714.8
2018-Jan-09 14:30N 39°30' W 075°34'714.4
2018-Jan-09 14:00N 39°37' W 075°35'612.7
2018-Jan-09 13:31N 39°42' W 075°31'611.2
2018-Jan-09 13:00N 39°47' W 075°27'5 9.3
2018-Jan-09 12:31N 39°50' W 075°22'5 9.2
2018-Jan-09 12:01N 39°51' W 075°16'4 8.4
2018-Jan-09 11:31N 39°53' W 075°11'3 5.3
2018-Jan-09 11:00N 39°54' W 075°08'0 0.4
2018-Jan-09 10:31N 39°54' W 075°08'0 0.0
2018-Jan-09 09:58N 39°54' W 075°08'0 0.0
2018-Jan-09 09:28N 39°54' W 075°08'0 0.0
2018-Jan-09 08:58N 39°54' W 075°08'0 0.0
2018-Jan-09 08:28N 39°54' W 075°08'0 0.0
2018-Jan-09 07:58N 39°54' W 075°08'0 0.0
2018-Jan-09 07:28N 39°54' W 075°08'0 0.0
2018-Jan-09 06:58N 39°54' W 075°08'0 0.0
2018-Jan-09 06:28N 39°54' W 075°08'0 0.0
2018-Jan-09 05:58N 39°54' W 075°08'0 0.0
2018-Jan-09 05:29N 39°54' W 075°08'0 0.6
2018-Jan-09 05:00N 39°54' W 075°08'2 3.4
2018-Jan-09 04:31N 39°53' W 075°10'3 6.2
2018-Jan-09 04:01N 39°52' W 075°14'0 0.6
2018-Jan-09 03:29N 39°51' W 075°14'0 0.1
2018-Jan-09 02:59N 39°51' W 075°14'0 0.0
2018-Jan-09 02:29N 39°52' W 075°14'0 0.0
2018-Jan-09 01:59N 39°52' W 075°14'0 0.1
2018-Jan-09 01:29N 39°52' W 075°14'0 0.1
2018-Jan-09 00:59N 39°52' W 075°14'0 0.1
2018-Jan-09 00:29N 39°52' W 075°14'0 0.1
2018-Jan-08 23:59N 39°52' W 075°14'0 0.0
2018-Jan-08 23:29N 39°52' W 075°14'0 0.0
2018-Jan-08 22:59N 39°52' W 075°14'0 0.0
2018-Jan-08 22:29N 39°52' W 075°14'0 0.0
2018-Jan-08 21:59N 39°52' W 075°14'0 0.0
2018-Jan-08 21:29N 39°52' W 075°14'0 0.0
2018-Jan-08 20:59N 39°52' W 075°14'0 0.0
2018-Jan-08 20:29N 39°52' W 075°14'0 0.3
2018-Jan-08 19:59N 39°52' W 075°14'2 3.9
2018-Jan-08 19:30N 39°51' W 075°16'5 9.2
2018-Jan-08 19:00N 39°50' W 075°22'5 9.1
2018-Jan-08 18:30N 39°47' W 075°27'611.3
2018-Jan-08 18:01N 39°42' W 075°31'612.1
2018-Jan-08 17:31N 39°37' W 075°35'612.8
2018-Jan-08 17:00N 39°31' W 075°33'611.6
2018-Jan-08 16:30N 39°25' W 075°31'713.1
2018-Jan-08 16:01N 39°21' W 075°26'713.2
2018-Jan-08 15:31N 39°16' W 075°20'713.3
2018-Jan-08 15:00N 39°10' W 075°15'713.9
2018-Jan-08 14:30N 39°04' W 075°11'714.3
2018-Jan-08 14:00N 38°58' W 075°07'714.2
2018-Jan-08 13:31N 38°51' W 075°04'510.3
2018-Jan-08 13:00N 38°47' W 074°60'5 9.2
2018-Jan-08 12:30N 38°44' W 074°55'4 8.0
2018-Jan-08 12:01N 38°42' W 074°51'1 1.5
2018-Jan-08 11:31N 38°41' W 074°51'2 4.6
2018-Jan-08 11:00N 38°39' W 074°51'14 8.4
2018-Jan-08 09:18N 38°28' W 074°40'103 3.7
2018-Jan-07 05:00N 36°58' W 075°45'3 5.4
2018-Jan-07 04:30N 36°57' W 075°48'3 5.6
2018-Jan-07 04:01N 36°56' W 075°51'3 5.3
2018-Jan-07 03:31N 36°56' W 075°55'4 7.1
2018-Jan-07 03:00N 36°57' W 075°59'611.4
2018-Jan-07 02:31N 36°58' W 076°06'916.8
2018-Jan-07 01:59N 36°60' W 076°17'510.2
2018-Jan-07 01:29N 36°56' W 076°20'4 4.4
2018-Jan-07 00:29N 36°51' W 076°20'0 0.0
2018-Jan-06 23:47N 36°51' W 076°20'0 0.0
2018-Jan-06 23:26N 36°51' W 076°20'0 0.0
2018-Jan-06 22:56N 36°51' W 076°20'0 0.0
2018-Jan-06 22:29N 36°51' W 076°20'0 0.0
2018-Jan-06 21:56N 36°51' W 076°20'0 0.0
2018-Jan-06 21:26N 36°51' W 076°20'0 0.0
2018-Jan-06 20:59N 36°51' W 076°20'0 0.0
2018-Jan-06 20:29N 36°51' W 076°20'0 0.0
2018-Jan-06 19:59N 36°51' W 076°20'0 0.0
2018-Jan-06 19:26N 36°51' W 076°20'0 0.0
2018-Jan-06 18:59N 36°51' W 076°20'0 0.0
2018-Jan-06 18:26N 36°51' W 076°20'0 0.0
2018-Jan-06 17:56N 36°51' W 076°20'0 0.0
2018-Jan-06 17:29N 36°51' W 076°20'0 0.0
2018-Jan-06 16:53N 36°51' W 076°20'0 0.0
2018-Jan-06 16:26N 36°51' W 076°20'0 0.0
2018-Jan-06 15:59N 36°51' W 076°20'0 0.0
2018-Jan-06 15:14N 36°51' W 076°20'0 0.0
2018-Jan-06 14:59N 36°51' W 076°20'0 0.0
2018-Jan-06 14:29N 36°51' W 076°20'0 0.0
2018-Jan-06 13:59N 36°51' W 076°20'0 0.0
2018-Jan-06 13:29N 36°51' W 076°20'0 0.0
2018-Jan-06 12:50N 36°51' W 076°20'0 0.0
2018-Jan-06 12:27N 36°51' W 076°20'1 1.7
2018-Jan-06 11:59N 36°52' W 076°20'5 9.0
2018-Jan-06 11:29N 36°57' W 076°20'510.9
2018-Jan-06 11:00N 37°01' W 076°16'815.3
2018-Jan-06 10:30N 36°58' W 076°07'713.3
2018-Jan-06 10:00N 36°56' W 075°59'4 8.6
2018-Jan-06 09:30N 36°55' W 075°54'3 6.1
2018-Jan-06 09:00N 36°53' W 075°51'3 6.1
2018-Jan-06 08:30N 36°51' W 075°48'4 7.9
2018-Jan-06 08:00N 36°49' W 075°44'191 5.9
2018-Jan-04 23:24N 34°12' W 077°57'0 0.1
2018-Jan-04 21:02N 34°12' W 077°57'0 1.4
2018-Jan-04 21:00N 34°12' W 077°57'0 0.4
2018-Jan-04 20:30N 34°12' W 077°57'44011.4
2018-Jan-03 05:51N 27°02' W 079°43'514.7
2018-Jan-03 05:30N 26°57' W 079°45'715.1
2018-Jan-03 05:01N 26°49' W 079°47'714.0
2018-Jan-03 04:30N 26°43' W 079°49'714.8
2018-Jan-03 04:00N 26°36' W 079°52'714.9
2018-Jan-03 03:30N 26°29' W 079°54'815.5
2018-Jan-03 03:00N 26°21' W 079°56'815.1
2018-Jan-03 02:30N 26°14' W 079°59'713.9
2018-Jan-03 02:01N 26°07' W 080°02'4 7.6
2018-Jan-03 01:30N 26°06' W 080°05'2 3.8
2018-Jan-03 01:00N 26°04' W 080°07'0 0.0
2018-Jan-03 00:26N 26°04' W 080°07'0 0.0
2018-Jan-02 23:56N 26°04' W 080°07'0 0.0
2018-Jan-02 23:29N 26°04' W 080°07'0 0.0
2018-Jan-02 22:59N 26°04' W 080°07'0 0.0
2018-Jan-02 22:26N 26°04' W 080°07'0 0.0
2018-Jan-02 21:59N 26°04' W 080°07'0 0.0
2018-Jan-02 21:29N 26°04' W 080°07'0 0.0
2018-Jan-02 20:59N 26°04' W 080°07'0 0.0
2018-Jan-02 20:29N 26°04' W 080°07'0 0.0
2018-Jan-02 19:59N 26°04' W 080°07'0 0.0
2018-Jan-02 19:29N 26°04' W 080°07'0 0.0
2018-Jan-02 18:59N 26°04' W 080°07'0 0.0
2018-Jan-02 18:29N 26°04' W 080°07'0 0.0
2018-Jan-02 17:59N 26°04' W 080°07'0 0.0
2018-Jan-02 17:29N 26°04' W 080°07'0 0.0
2018-Jan-02 16:59N 26°04' W 080°07'1 2.6
2018-Jan-02 16:30N 26°06' W 080°07'4 8.2
2018-Jan-02 16:00N 26°05' W 080°02'5 9.6
2018-Jan-02 15:31N 26°05' W 079°57'815.3
2018-Jan-02 15:00N 26°07' W 079°49'  
Track history (hours):
 
Tides and Currents Weather Stations Pressure Air Temp Water Temp Dewpoint Dewpoint Depression Visibility Wind Speed Wind Dir Waves Ship Positions

Maersk Wolfsburg

Last reported at 2018-Jan-12 14:56 UTC. Time now 2018-Jan-20 10:37 UTC.
Position N 31°55' W 080°36'.

Length 175 m; draft 7.4 m.

Type: Ship (hazmat cat A). MMSI: 477742500.

Date/timePositionNaut miles runAvg speedWind from/ knotsBaromVisibWave heightAir tempDewpointWater temp
2018-Jan-12 14:56N 31°55' W 080°36'0 0.0
2018-Jan-12 14:14N 31°55' W 080°36'0 0.0
2018-Jan-12 12:20N 31°55' W 080°36'0 0.0
2018-Jan-12 10:26N 31°55' W 080°36'0 0.0
2018-Jan-12 07:26N 31°55' W 080°36'0 0.0
2018-Jan-12 06:14N 31°55' W 080°36'0 0.0
2018-Jan-12 05:14N 31°55' W 080°36'0 0.0
2018-Jan-12 04:56N 31°55' W 080°36'0 0.0
2018-Jan-12 04:26N 31°55' W 080°36'0 0.1
2018-Jan-12 02:50N 31°55' W 080°35'2 6.3
2018-Jan-12 02:30N 31°55' W 080°33'6 9.0
2018-Jan-12 01:53N 31°55' W 080°26'4 9.5
2018-Jan-12 01:30N 31°56' W 080°22'5 9.5
2018-Jan-12 00:59N 31°58' W 080°17'178 9.6
2018-Jan-11 06:29N 34°11' W 077°57'312 8.5
2018-Jan-09 17:42N 38°52' W 075°05'211.1
2018-Jan-09 17:31N 38°54' W 075°05'713.1
2018-Jan-09 17:00N 38°60' W 075°08'713.4
2018-Jan-09 16:30N 39°06' W 075°12'714.2
2018-Jan-09 16:00N 39°12' W 075°17'815.2
2018-Jan-09 15:31N 39°18' W 075°23'714.5
2018-Jan-09 15:01N 39°23' W 075°29'714.8
2018-Jan-09 14:30N 39°30' W 075°34'714.4
2018-Jan-09 14:00N 39°37' W 075°35'612.7
2018-Jan-09 13:31N 39°42' W 075°31'611.2
2018-Jan-09 13:00N 39°47' W 075°27'5 9.3
2018-Jan-09 12:31N 39°50' W 075°22'5 9.2
2018-Jan-09 12:01N 39°51' W 075°16'4 8.4
2018-Jan-09 11:31N 39°53' W 075°11'3 5.3
2018-Jan-09 11:00N 39°54' W 075°08'0 0.4
2018-Jan-09 10:31N 39°54' W 075°08'0 0.0
2018-Jan-09 09:58N 39°54' W 075°08'0 0.0
2018-Jan-09 09:28N 39°54' W 075°08'0 0.0
2018-Jan-09 08:58N 39°54' W 075°08'0 0.0
2018-Jan-09 08:28N 39°54' W 075°08'0 0.0
2018-Jan-09 07:58N 39°54' W 075°08'0 0.0
2018-Jan-09 07:28N 39°54' W 075°08'0 0.0
2018-Jan-09 06:58N 39°54' W 075°08'0 0.0
2018-Jan-09 06:28N 39°54' W 075°08'0 0.0
2018-Jan-09 05:58N 39°54' W 075°08'0 0.0
2018-Jan-09 05:29N 39°54' W 075°08'0 0.6
2018-Jan-09 05:00N 39°54' W 075°08'2 3.4
2018-Jan-09 04:31N 39°53' W 075°10'3 6.2
2018-Jan-09 04:01N 39°52' W 075°14'0 0.6
2018-Jan-09 03:29N 39°51' W 075°14'0 0.1
2018-Jan-09 02:59N 39°51' W 075°14'0 0.0
2018-Jan-09 02:29N 39°52' W 075°14'0 0.0
2018-Jan-09 01:59N 39°52' W 075°14'0 0.1
2018-Jan-09 01:29N 39°52' W 075°14'0 0.1
2018-Jan-09 00:59N 39°52' W 075°14'0 0.1
2018-Jan-09 00:29N 39°52' W 075°14'0 0.1
2018-Jan-08 23:59N 39°52' W 075°14'0 0.0
2018-Jan-08 23:29N 39°52' W 075°14'0 0.0
2018-Jan-08 22:59N 39°52' W 075°14'0 0.0
2018-Jan-08 22:29N 39°52' W 075°14'0 0.0
2018-Jan-08 21:59N 39°52' W 075°14'0 0.0
2018-Jan-08 21:29N 39°52' W 075°14'0 0.0
2018-Jan-08 20:59N 39°52' W 075°14'0 0.0
2018-Jan-08 20:29N 39°52' W 075°14'0 0.3
2018-Jan-08 19:59N 39°52' W 075°14'2 3.9
2018-Jan-08 19:30N 39°51' W 075°16'5 9.2
2018-Jan-08 19:00N 39°50' W 075°22'5 9.1
2018-Jan-08 18:30N 39°47' W 075°27'611.3
2018-Jan-08 18:01N 39°42' W 075°31'612.1
2018-Jan-08 17:31N 39°37' W 075°35'612.8
2018-Jan-08 17:00N 39°31' W 075°33'611.6
2018-Jan-08 16:30N 39°25' W 075°31'713.1
2018-Jan-08 16:01N 39°21' W 075°26'713.2
2018-Jan-08 15:31N 39°16' W 075°20'713.3
2018-Jan-08 15:00N 39°10' W 075°15'713.9
2018-Jan-08 14:30N 39°04' W 075°11'714.3
2018-Jan-08 14:00N 38°58' W 075°07'714.2
2018-Jan-08 13:31N 38°51' W 075°04'510.3
2018-Jan-08 13:00N 38°47' W 074°60'5 9.2
2018-Jan-08 12:30N 38°44' W 074°55'4 8.0
2018-Jan-08 12:01N 38°42' W 074°51'1 1.5
2018-Jan-08 11:31N 38°41' W 074°51'2 4.6
2018-Jan-08 11:00N 38°39' W 074°51'14 8.4
2018-Jan-08 09:18N 38°28' W 074°40'103 3.7
2018-Jan-07 05:00N 36°58' W 075°45'3 5.4
2018-Jan-07 04:30N 36°57' W 075°48'3 5.6
2018-Jan-07 04:01N 36°56' W 075°51'3 5.3
2018-Jan-07 03:31N 36°56' W 075°55'4 7.1
2018-Jan-07 03:00N 36°57' W 075°59'611.4
2018-Jan-07 02:31N 36°58' W 076°06'916.8
2018-Jan-07 01:59N 36°60' W 076°17'510.2
2018-Jan-07 01:29N 36°56' W 076°20'4 4.4
2018-Jan-07 00:29N 36°51' W 076°20'0 0.0
2018-Jan-06 23:47N 36°51' W 076°20'0 0.0
2018-Jan-06 23:26N 36°51' W 076°20'0 0.0
2018-Jan-06 22:56N 36°51' W 076°20'0 0.0
2018-Jan-06 22:29N 36°51' W 076°20'0 0.0
2018-Jan-06 21:56N 36°51' W 076°20'0 0.0
2018-Jan-06 21:26N 36°51' W 076°20'0 0.0
2018-Jan-06 20:59N 36°51' W 076°20'0 0.0
2018-Jan-06 20:29N 36°51' W 076°20'0 0.0
2018-Jan-06 19:59N 36°51' W 076°20'0 0.0
2018-Jan-06 19:26N 36°51' W 076°20'0 0.0
2018-Jan-06 18:59N 36°51' W 076°20'0 0.0
2018-Jan-06 18:26N 36°51' W 076°20'0 0.0
2018-Jan-06 17:56N 36°51' W 076°20'0 0.0
2018-Jan-06 17:29N 36°51' W 076°20'0 0.0
2018-Jan-06 16:53N 36°51' W 076°20'0 0.0
2018-Jan-06 16:26N 36°51' W 076°20'0 0.0
2018-Jan-06 15:59N 36°51' W 076°20'0 0.0
2018-Jan-06 15:14N 36°51' W 076°20'0 0.0
2018-Jan-06 14:59N 36°51' W 076°20'0 0.0
2018-Jan-06 14:29N 36°51' W 076°20'0 0.0
2018-Jan-06 13:59N 36°51' W 076°20'0 0.0
2018-Jan-06 13:29N 36°51' W 076°20'0 0.0
2018-Jan-06 12:50N 36°51' W 076°20'0 0.0
2018-Jan-06 12:27N 36°51' W 076°20'1 1.7
2018-Jan-06 11:59N 36°52' W 076°20'5 9.0
2018-Jan-06 11:29N 36°57' W 076°20'510.9
2018-Jan-06 11:00N 37°01' W 076°16'815.3
2018-Jan-06 10:30N 36°58' W 076°07'713.3
2018-Jan-06 10:00N 36°56' W 075°59'4 8.6
2018-Jan-06 09:30N 36°55' W 075°54'3 6.1
2018-Jan-06 09:00N 36°53' W 075°51'3 6.1
2018-Jan-06 08:30N 36°51' W 075°48'4 7.9
2018-Jan-06 08:00N 36°49' W 075°44'191 5.9
2018-Jan-04 23:24N 34°12' W 077°57'0 0.1
2018-Jan-04 21:02N 34°12' W 077°57'0 1.4
2018-Jan-04 21:00N 34°12' W 077°57'0 0.4
2018-Jan-04 20:30N 34°12' W 077°57'44011.4
2018-Jan-03 05:51N 27°02' W 079°43'514.7
2018-Jan-03 05:30N 26°57' W 079°45'715.1
2018-Jan-03 05:01N 26°49' W 079°47'714.0
2018-Jan-03 04:30N 26°43' W 079°49'714.8
2018-Jan-03 04:00N 26°36' W 079°52'714.9
2018-Jan-03 03:30N 26°29' W 079°54'815.5
2018-Jan-03 03:00N 26°21' W 079°56'815.1
2018-Jan-03 02:30N 26°14' W 079°59'713.9
2018-Jan-03 02:01N 26°07' W 080°02'4 7.6
2018-Jan-03 01:30N 26°06' W 080°05'2 3.8
2018-Jan-03 01:00N 26°04' W 080°07'0 0.0
2018-Jan-03 00:26N 26°04' W 080°07'0 0.0
2018-Jan-02 23:56N 26°04' W 080°07'0 0.0
2018-Jan-02 23:29N 26°04' W 080°07'0 0.0
2018-Jan-02 22:59N 26°04' W 080°07'0 0.0
2018-Jan-02 22:26N 26°04' W 080°07'0 0.0
2018-Jan-02 21:59N 26°04' W 080°07'0 0.0
2018-Jan-02 21:29N 26°04' W 080°07'0 0.0
2018-Jan-02 20:59N 26°04' W 080°07'0 0.0
2018-Jan-02 20:29N 26°04' W 080°07'0 0.0
2018-Jan-02 19:59N 26°04' W 080°07'0 0.0
2018-Jan-02 19:29N 26°04' W 080°07'0 0.0
2018-Jan-02 18:59N 26°04' W 080°07'0 0.0
2018-Jan-02 18:29N 26°04' W 080°07'0 0.0
2018-Jan-02 17:59N 26°04' W 080°07'0 0.0
2018-Jan-02 17:29N 26°04' W 080°07'0 0.0
2018-Jan-02 16:59N 26°04' W 080°07'1 2.6
2018-Jan-02 16:30N 26°06' W 080°07'4 8.2
2018-Jan-02 16:00N 26°05' W 080°02'5 9.6
2018-Jan-02 15:31N 26°05' W 079°57'815.3
2018-Jan-02 15:00N 26°07' W 079°49'  

Dump ship's entire track history